createdAt,value
2018-05-16T00:01:56.615Z,7.50
2018-05-16T00:04:59.942Z,8.17
2018-05-16T00:08:03.243Z,7.60
2018-05-16T00:11:07.457Z,6.27
2018-05-16T00:14:11.670Z,7.93
2018-05-16T00:17:14.971Z,7.10
2018-05-16T00:20:19.129Z,10.53
2018-05-16T00:23:22.453Z,8.60
2018-05-16T00:26:25.816Z,7.87
2018-05-16T00:29:29.137Z,10.00
2018-05-16T00:32:32.485Z,10.23
2018-05-16T00:35:35.796Z,8.47
2018-05-16T00:38:39.865Z,7.10
2018-05-16T00:41:43.219Z,8.97
2018-05-16T00:44:46.559Z,9.57
2018-05-16T00:47:49.908Z,10.33
2018-05-16T00:51:10.994Z,8.17
2018-05-16T00:54:14.304Z,7.57
2018-05-16T00:57:18.501Z,9.33
2018-05-16T01:00:21.946Z,8.33
2018-05-16T01:03:25.301Z,7.10
2018-05-16T01:06:28.629Z,12.70
2018-05-16T01:09:32.103Z,8.17
2018-05-16T01:12:36.734Z,10.03
2018-05-16T01:15:40.838Z,8.30
2018-05-16T01:18:44.212Z,7.73
2018-05-16T01:21:47.575Z,11.97
2018-05-16T01:24:51.014Z,7.47
2018-05-16T01:27:54.359Z,9.77
2018-05-16T01:30:57.726Z,7.47
2018-05-16T01:34:01.838Z,8.30
2018-05-16T01:37:05.181Z,8.53
2018-05-16T01:40:08.524Z,11.10
2018-05-16T01:43:13.345Z,7.27
2018-05-16T01:46:16.741Z,8.97
2018-05-16T01:49:20.787Z,11.37
2018-05-16T01:52:24.884Z,9.47
2018-05-16T01:55:28.262Z,9.80
2018-05-16T01:58:31.634Z,10.70
2018-05-16T02:01:34.952Z,8.43
2018-05-16T02:04:38.305Z,7.80
2018-05-16T02:07:41.654Z,7.27
2018-05-16T02:10:44.965Z,7.97
2018-05-16T02:13:49.151Z,10.80
2018-05-16T02:16:52.561Z,9.00
2018-05-16T02:19:55.880Z,8.53
2018-05-16T02:22:59.250Z,10.00
2018-05-16T02:26:02.569Z,11.80
2018-05-16T02:29:07.397Z,11.93
2018-05-16T02:32:11.601Z,9.70
2018-05-16T02:35:15.029Z,10.47
2018-05-16T02:38:19.192Z,12.57
2018-05-16T02:41:22.611Z,14.70
2018-05-16T02:44:26.018Z,14.20
2018-05-16T02:47:29.378Z,11.20
2018-05-16T02:50:32.800Z,12.57
2018-05-16T02:53:36.218Z,11.50
2018-05-16T02:56:39.582Z,10.33
2018-05-16T02:59:42.916Z,10.67
2018-05-16T03:02:46.277Z,10.77
2018-05-16T03:05:49.789Z,12.73
2018-05-16T03:08:53.171Z,11.50
2018-05-16T03:11:56.582Z,10.33
2018-05-16T03:14:59.927Z,11.73
2018-05-16T03:18:03.282Z,10.70
2018-05-16T03:21:06.625Z,11.00
2018-05-16T03:24:09.985Z,10.03
2018-05-16T03:27:13.414Z,14.90
2018-05-16T03:30:17.533Z,11.50
2018-05-16T03:33:20.866Z,12.57
2018-05-16T03:36:24.241Z,11.00
2018-05-16T03:39:27.552Z,11.17
2018-05-16T03:42:30.901Z,11.47
2018-05-16T03:45:34.963Z,10.63
2018-05-16T03:48:38.335Z,13.43
2018-05-16T03:51:41.635Z,10.37
2018-05-16T03:54:45.021Z,11.80
2018-05-16T04:01:46.927Z,13.13
2018-05-16T04:04:50.241Z,11.20
2018-05-16T04:07:53.606Z,10.20
2018-05-16T04:10:56.920Z,13.30
2018-05-16T04:14:00.263Z,12.67
2018-05-16T04:17:03.610Z,11.87
2018-05-16T04:20:07.038Z,10.90
2018-05-16T04:23:10.442Z,9.93
2018-05-16T04:26:13.848Z,9.50
2018-05-16T04:29:17.161Z,9.60
2018-05-16T04:32:21.278Z,12.83
2018-05-16T04:35:25.400Z,8.80
2018-05-16T04:38:29.583Z,8.40
2018-05-16T04:41:32.893Z,9.30
2018-05-16T04:44:37.011Z,12.27
2018-05-16T04:47:41.102Z,9.17
2018-05-16T04:50:44.456Z,9.60
2018-05-16T04:53:47.792Z,14.20
2018-05-16T04:56:51.154Z,11.30
2018-05-16T04:59:54.446Z,6.67
2018-05-16T05:02:57.833Z,9.60
2018-05-16T05:06:01.192Z,10.00
2018-05-16T05:09:04.579Z,8.87
2018-05-16T05:12:07.985Z,7.63
2018-05-16T05:15:11.337Z,12.70
2018-05-16T05:18:14.690Z,9.80
2018-05-16T05:21:18.869Z,12.37
2018-05-16T05:24:22.210Z,11.73
2018-05-16T05:27:26.325Z,8.87
2018-05-16T05:30:30.401Z,14.93
2018-05-16T05:33:33.754Z,10.80
2018-05-16T05:36:37.095Z,11.93
2018-05-16T05:39:40.447Z,10.83
2018-05-16T05:42:43.777Z,9.53
2018-05-16T05:45:47.198Z,8.07
2018-05-16T05:48:50.536Z,11.37
2018-05-16T05:51:53.998Z,11.80
2018-05-16T05:54:57.393Z,10.53
2018-05-16T05:58:00.789Z,16.53
2018-05-16T06:01:04.165Z,10.53
2018-05-16T06:04:07.526Z,8.43
2018-05-16T06:07:10.843Z,8.27
2018-05-16T06:10:14.190Z,8.50
2018-05-16T06:13:18.294Z,13.50
2018-05-16T06:16:21.652Z,10.50
2018-05-16T06:19:25.133Z,7.80
2018-05-16T06:22:28.434Z,8.73
2018-05-16T06:25:31.763Z,9.53
2018-05-16T06:28:35.133Z,10.17
2018-05-16T06:31:38.462Z,13.63
2018-05-16T06:34:41.868Z,9.70
2018-05-16T06:37:45.149Z,7.93
2018-05-16T06:40:48.521Z,8.07
2018-05-16T06:43:51.959Z,8.17
2018-05-16T06:46:55.350Z,9.07
2018-05-16T06:49:58.669Z,8.50
2018-05-16T06:53:02.853Z,7.07
2018-05-16T06:56:06.142Z,8.47
2018-05-16T06:59:09.501Z,7.97
2018-05-16T07:02:12.831Z,8.83
2018-05-16T07:05:16.177Z,8.47
2018-05-16T07:08:20.383Z,5.77
2018-05-16T07:11:24.502Z,11.17
2018-05-16T07:14:28.585Z,7.87
2018-05-16T07:17:31.949Z,6.63
2018-05-16T07:20:35.293Z,6.73
2018-05-16T07:23:39.511Z,6.87
2018-05-16T07:26:42.905Z,7.07
2018-05-16T07:29:46.297Z,7.10
2018-05-16T07:32:49.616Z,7.20
2018-05-16T07:35:53.737Z,7.30
2018-05-16T07:38:57.921Z,14.67
2018-05-16T07:42:01.263Z,10.00
2018-05-16T07:45:04.640Z,6.50
2018-05-16T07:48:08.775Z,5.93
2018-05-16T07:51:12.202Z,9.10
2018-05-16T07:54:15.483Z,9.00
2018-05-16T07:57:18.811Z,8.73
2018-05-16T08:00:22.161Z,14.03
2018-05-16T08:03:25.478Z,19.80
2018-05-16T08:06:28.841Z,13.90
2018-05-16T08:09:32.930Z,15.83
2018-05-16T08:12:36.239Z,15.67
2018-05-16T08:15:39.553Z,8.53
2018-05-16T08:18:42.888Z,9.93
2018-05-16T08:21:46.285Z,8.73
2018-05-16T08:24:50.370Z,9.17
2018-05-16T08:27:53.720Z,9.63
2018-05-16T08:30:57.098Z,8.93
2018-05-16T08:34:00.526Z,7.13
2018-05-16T08:37:03.914Z,6.67
2018-05-16T08:40:07.237Z,7.87
2018-05-16T08:43:11.365Z,10.00
2018-05-16T08:46:14.678Z,9.67
2018-05-16T08:49:18.005Z,10.57
2018-05-16T08:52:21.323Z,6.93
2018-05-16T08:55:24.657Z,12.77
2018-05-16T08:58:28.089Z,10.23
2018-05-16T09:01:31.402Z,10.23
2018-05-16T09:04:35.526Z,13.40
2018-05-16T09:07:38.847Z,13.40
2018-05-16T09:10:42.183Z,10.77
2018-05-16T09:13:45.674Z,12.47
2018-05-16T09:16:48.961Z,9.83
2018-05-16T09:19:52.347Z,12.33
2018-05-16T09:22:55.680Z,12.17
2018-05-16T09:25:58.996Z,7.97
2018-05-16T09:29:02.338Z,10.03
2018-05-16T09:32:05.664Z,9.80
2018-05-16T09:35:09.001Z,10.90
2018-05-16T09:38:13.192Z,8.67
2018-05-16T09:41:16.575Z,10.57
2018-05-16T09:44:19.896Z,9.17
2018-05-16T09:47:23.261Z,12.07
2018-05-16T09:50:27.484Z,8.23
2018-05-16T09:53:30.811Z,13.10
2018-05-16T09:56:34.135Z,10.03
2018-05-16T09:59:37.462Z,9.03
2018-05-16T10:02:40.789Z,15.90
2018-05-16T10:05:44.133Z,8.43
2018-05-16T10:08:47.457Z,9.63
2018-05-16T10:11:50.790Z,10.77
2018-05-16T10:14:54.114Z,9.77
2018-05-16T10:17:57.438Z,12.70
2018-05-16T10:21:00.832Z,9.20
2018-05-16T10:24:04.453Z,11.63
2018-05-16T10:27:07.908Z,10.93
2018-05-16T10:30:11.207Z,12.33
2018-05-16T10:33:14.566Z,13.97
2018-05-16T10:36:17.895Z,14.30
2018-05-16T10:39:21.217Z,12.43
2018-05-16T10:42:24.559Z,12.83
2018-05-16T10:45:27.847Z,10.10
2018-05-16T10:48:32.005Z,13.23
2018-05-16T10:51:35.623Z,12.47
2018-05-16T10:54:39.514Z,8.70
2018-05-16T10:57:42.845Z,11.47
2018-05-16T11:00:46.183Z,12.53
2018-05-16T11:03:50.284Z,8.63
2018-05-16T11:06:54.378Z,8.03
2018-05-16T11:09:57.717Z,8.17
2018-05-16T11:13:01.770Z,10.30
2018-05-16T11:16:05.143Z,12.23
2018-05-16T11:19:08.487Z,7.80
2018-05-16T11:22:11.796Z,6.20
2018-05-16T11:25:15.222Z,6.20
2018-05-16T11:28:18.585Z,8.13
2018-05-16T11:31:21.991Z,10.47
2018-05-16T11:34:25.322Z,8.53
2018-05-16T11:37:28.651Z,9.03
2018-05-16T11:40:32.052Z,6.40
2018-05-16T11:43:35.494Z,6.80
2018-05-16T11:46:39.577Z,8.30
2018-05-16T11:49:42.978Z,7.53
2018-05-16T11:52:46.301Z,9.03
2018-05-16T11:55:50.505Z,5.10
2018-05-16T11:58:54.688Z,6.57
2018-05-16T12:01:58.002Z,10.63
2018-05-16T12:05:01.475Z,9.13
2018-05-16T12:08:05.537Z,8.20
2018-05-16T12:11:09.717Z,10.57
2018-05-16T12:14:12.996Z,7.83
2018-05-16T12:17:16.301Z,8.90
2018-05-16T12:20:19.772Z,4.83
2018-05-16T12:23:23.088Z,7.13
2018-05-16T12:26:26.497Z,8.90
2018-05-16T12:29:30.855Z,9.67
2018-05-16T12:32:35.049Z,12.47
2018-05-16T12:35:38.438Z,11.30
2018-05-16T12:38:41.855Z,9.67
2018-05-16T12:41:45.184Z,7.80
2018-05-16T12:44:48.531Z,9.93
2018-05-16T12:47:51.934Z,10.43
2018-05-16T12:50:55.338Z,7.50
2018-05-16T12:54:00.262Z,6.13
2018-05-16T12:57:03.670Z,6.80
2018-05-16T13:00:07.006Z,6.83
2018-05-16T13:03:10.352Z,4.33
2018-05-16T13:06:13.699Z,7.10
2018-05-16T13:09:17.105Z,4.03
2018-05-16T13:12:20.441Z,5.00
2018-05-16T13:15:24.536Z,7.33
2018-05-16T13:18:27.945Z,7.03
2018-05-16T13:21:31.310Z,8.27
2018-05-16T13:24:35.362Z,8.70
2018-05-16T13:27:38.687Z,9.53
2018-05-16T13:30:42.804Z,8.73
2018-05-16T13:33:46.979Z,4.60
2018-05-16T13:36:50.313Z,10.13
2018-05-16T13:39:54.500Z,8.53
2018-05-16T13:42:58.565Z,6.67
2018-05-16T13:46:02.061Z,7.33
2018-05-16T13:49:05.392Z,6.20
2018-05-16T13:52:08.714Z,7.60
2018-05-16T13:55:12.027Z,7.67
2018-05-16T13:58:15.368Z,6.40
2018-05-16T14:01:18.668Z,7.10
2018-05-16T14:04:22.030Z,6.93
2018-05-16T14:07:25.347Z,6.07
2018-05-16T14:10:28.790Z,8.37
2018-05-16T14:13:32.149Z,4.87
2018-05-16T14:16:35.478Z,6.83
2018-05-16T14:19:38.865Z,6.07
2018-05-16T14:22:42.184Z,4.40
2018-05-16T14:25:45.518Z,6.80
2018-05-16T14:28:48.872Z,7.60
2018-05-16T14:31:52.204Z,6.53
2018-05-16T14:34:55.538Z,5.63
2018-05-16T14:37:58.871Z,10.80
2018-05-16T14:41:02.990Z,7.60
2018-05-16T14:44:07.185Z,6.27
2018-05-16T14:47:10.529Z,9.30
2018-05-16T14:50:13.878Z,5.67
2018-05-16T14:53:17.200Z,6.07
2018-05-16T14:56:21.315Z,6.93
2018-05-16T14:59:25.501Z,9.40
2018-05-16T15:02:28.801Z,10.37
2018-05-16T15:05:33.023Z,7.53
2018-05-16T15:08:36.418Z,10.43
2018-05-16T15:11:39.763Z,9.93
2018-05-16T15:14:43.095Z,9.83
2018-05-16T15:17:46.453Z,10.57
2018-05-16T15:20:49.820Z,17.67
2018-05-16T15:23:53.897Z,11.97
2018-05-16T15:26:57.189Z,7.30
2018-05-16T15:30:00.596Z,12.10
2018-05-16T15:33:04.004Z,8.43
2018-05-16T15:36:08.068Z,9.90
2018-05-16T15:39:11.402Z,10.23
2018-05-16T15:42:14.801Z,10.47
2018-05-16T15:45:18.169Z,12.90
2018-05-16T15:48:21.497Z,10.63
2018-05-16T15:51:24.852Z,11.07
2018-05-16T15:54:28.309Z,11.93
2018-05-16T15:57:31.700Z,11.93
2018-05-16T16:00:35.052Z,13.67
2018-05-16T16:03:38.347Z,10.73
2018-05-16T16:06:41.741Z,13.77
2018-05-16T16:09:45.039Z,10.03
2018-05-16T16:12:48.398Z,9.57
2018-05-16T16:15:52.550Z,14.93
2018-05-16T16:18:55.890Z,11.17
2018-05-16T16:21:59.247Z,9.27
2018-05-16T16:25:02.560Z,12.30
2018-05-16T16:28:05.904Z,10.50
2018-05-16T16:31:10.000Z,8.53
2018-05-16T16:34:13.337Z,12.87
2018-05-16T16:37:16.788Z,9.73
2018-05-16T16:40:20.187Z,8.70
2018-05-16T16:43:23.505Z,7.80
2018-05-16T16:46:27.634Z,11.47
2018-05-16T16:49:31.011Z,8.40
2018-05-16T16:52:35.119Z,11.57
2018-05-16T16:55:39.239Z,12.97
2018-05-16T16:58:43.332Z,10.37
2018-05-16T17:01:46.687Z,8.17
2018-05-16T17:04:50.084Z,11.10
2018-05-16T17:07:53.446Z,9.50
2018-05-16T17:10:57.634Z,11.60
2018-05-16T17:14:01.020Z,8.67
2018-05-16T17:17:04.365Z,8.97
2018-05-16T17:20:08.484Z,14.33
2018-05-16T17:23:11.824Z,9.10
2018-05-16T17:26:15.171Z,10.70
2018-05-16T17:29:19.245Z,11.23
2018-05-16T17:32:22.603Z,9.23
2018-05-16T17:35:25.960Z,9.80
2018-05-16T17:38:30.072Z,13.50
2018-05-16T17:41:33.447Z,12.43
2018-05-16T17:44:36.779Z,16.10
2018-05-16T17:47:40.882Z,9.30
2018-05-16T17:50:44.973Z,10.93
2018-05-16T17:53:48.455Z,6.70
2018-05-16T17:56:52.618Z,9.93
2018-05-16T17:59:56.857Z,15.33
2018-05-16T18:03:00.183Z,14.10
2018-05-16T18:06:03.559Z,14.00
2018-05-16T18:09:06.898Z,9.10
2018-05-16T18:12:10.249Z,14.97
2018-05-16T18:15:31.695Z,13.93
2018-05-16T18:18:35.113Z,12.87
2018-05-16T18:21:38.458Z,10.63
2018-05-16T18:24:41.789Z,12.83
2018-05-16T18:27:45.132Z,10.97
2018-05-16T18:30:49.243Z,13.67
2018-05-16T18:33:53.424Z,12.03
2018-05-16T18:36:56.769Z,13.43
2018-05-16T18:40:00.086Z,11.40
2018-05-16T18:43:03.528Z,16.50
2018-05-16T18:46:07.220Z,12.13
2018-05-16T18:49:10.700Z,11.87
2018-05-16T18:52:14.129Z,14.17
2018-05-16T18:55:17.474Z,13.30
2018-05-16T18:58:20.830Z,12.80
2018-05-16T19:01:24.190Z,14.93
2018-05-16T19:04:27.626Z,11.73
2018-05-16T19:07:31.000Z,13.93
2018-05-16T19:10:34.361Z,12.37
2018-05-16T19:13:37.686Z,11.87
2018-05-16T19:16:41.105Z,11.37
2018-05-16T19:19:44.520Z,14.20
2018-05-16T19:22:47.861Z,13.27
2018-05-16T19:25:51.153Z,13.60
2018-05-16T19:28:54.517Z,17.90
2018-05-16T19:31:58.629Z,11.80
2018-05-16T19:35:02.867Z,14.93
2018-05-16T19:38:06.220Z,11.37
2018-05-16T19:41:09.552Z,14.40
2018-05-16T19:44:13.643Z,15.73
2018-05-16T19:47:17.035Z,14.53
2018-05-16T19:50:20.414Z,14.50
2018-05-16T19:53:23.834Z,15.47
2018-05-16T19:56:27.216Z,16.83
2018-05-16T19:59:30.619Z,17.03
2018-05-16T20:02:33.970Z,11.97
2018-05-16T20:05:37.329Z,12.90
2018-05-16T20:08:40.661Z,17.67
2018-05-16T20:11:44.044Z,17.97
2018-05-16T20:14:47.448Z,16.13
2018-05-16T20:17:51.557Z,18.40
2018-05-16T20:20:54.887Z,21.57
2018-05-16T20:23:58.172Z,19.90
2018-05-16T20:27:01.618Z,17.93
2018-05-16T20:30:05.809Z,20.27
2018-05-16T20:33:09.157Z,18.83
2018-05-16T20:36:13.805Z,17.13
2018-05-16T20:39:17.153Z,16.90
2018-05-16T20:42:20.726Z,15.63
2018-05-16T20:45:24.124Z,19.00
2018-05-16T20:48:27.386Z,21.53
2018-05-16T20:51:30.678Z,17.23
2018-05-16T20:54:34.049Z,21.93
2018-05-16T20:57:37.429Z,22.83
2018-05-16T21:00:40.768Z,19.33
2018-05-16T21:03:44.111Z,16.37
2018-05-16T21:06:47.463Z,20.07
2018-05-16T21:09:50.844Z,17.43
2018-05-16T21:12:55.042Z,16.73
2018-05-16T21:15:58.438Z,17.73
2018-05-16T21:19:02.057Z,18.20
2018-05-16T21:22:06.521Z,18.07
2018-05-16T21:25:09.987Z,19.33
2018-05-16T21:28:13.506Z,24.87
2018-05-16T21:31:17.043Z,21.60
2018-05-16T21:34:20.598Z,20.13
2018-05-16T21:37:24.361Z,14.83
2018-05-16T21:40:27.908Z,20.40
2018-05-16T21:43:31.713Z,20.83
2018-05-16T21:46:35.062Z,23.33
2018-05-16T21:49:38.647Z,27.70
2018-05-16T21:52:42.262Z,17.57
2018-05-16T21:55:46.073Z,27.33
2018-05-16T21:58:49.446Z,21.03
2018-05-16T22:01:52.781Z,20.23
2018-05-16T22:04:56.111Z,19.53
2018-05-16T22:08:00.257Z,31.60
2018-05-16T22:11:04.033Z,29.13
2018-05-16T22:14:07.381Z,22.17
2018-05-16T22:17:10.731Z,27.13
2018-05-16T22:20:14.027Z,20.90
2018-05-16T22:23:17.391Z,33.17
2018-05-16T22:26:21.482Z,22.70
2018-05-16T22:29:25.429Z,26.53
2018-05-16T22:32:35.061Z,20.23
2018-05-16T22:35:44.775Z,18.70
2018-05-16T22:38:53.631Z,29.07
2018-05-16T22:42:03.331Z,21.17
2018-05-16T22:48:47.402Z,27.00
2018-05-16T22:51:50.812Z,32.17
2018-05-16T22:54:54.153Z,24.60
2018-05-16T22:57:58.277Z,36.87
2018-05-16T23:01:01.572Z,31.60
2018-05-16T23:04:04.933Z,31.90
2018-05-16T23:07:08.265Z,25.57
2018-05-16T23:10:11.622Z,31.30
2018-05-16T23:13:14.977Z,31.93
2018-05-16T23:16:18.315Z,31.50
2018-05-16T23:19:21.645Z,29.13
2018-05-16T23:22:25.823Z,26.50
2018-05-16T23:25:29.126Z,23.90
2018-05-16T23:28:33.330Z,30.37
2018-05-16T23:31:36.734Z,18.87
2018-05-16T23:34:40.141Z,32.47
2018-05-16T23:37:43.537Z,26.80
2018-05-16T23:40:46.906Z,24.00
2018-05-16T23:43:50.247Z,30.87
2018-05-16T23:46:54.458Z,28.90
2018-05-16T23:49:58.563Z,26.23
2018-05-16T23:53:01.982Z,27.13
2018-05-16T23:56:06.062Z,26.97
2018-05-16T23:59:09.402Z,26.77
